Apple Grove, North Carolina
Current Conditions -  °F | °C
As of 5:35 PM on Friday 24 Oct 2014 (Local Time) from KGEV Reporting Station
Clear Clear  
Wind Chill: 63°   Ceiling: Unl
Heat Index: 63°   Visibility: 10mi
Dew Point: 21°   Wind: 9mph
Humidity: 20%   Direction: 280°W
Pressure: 30.03"   Gusts: NA
Location:  36.524°N, 81.538°W
Report Text: KGEV 242135Z AUTO 28008KT 10SM CLR 17/M06 A3003 RMK AO2 T01701062
Loading
Personal Weather Stations






























Interactive Weather Map
Tropical Storm Tracking
New forecast layout! Learn more

10-Day Weather Forecast

Advertisements
Track Severe Weather on mobile